createdAt,value
2022-09-15T00:01:18.177Z,100754.66
2022-09-15T00:03:47.044Z,100759.88
2022-09-15T00:06:15.308Z,100761.81
2022-09-15T00:08:44.248Z,100753.69
2022-09-15T00:11:16.312Z,100754.06
2022-09-15T00:13:43.806Z,100751.91
2022-09-15T00:16:15.275Z,100752.00
2022-09-15T00:18:44.589Z,100751.50
2022-09-15T00:21:15.977Z,100753.19
2022-09-15T00:23:46.380Z,100753.28
2022-09-15T00:26:14.960Z,100742.44
2022-09-15T00:28:41.668Z,100760.75
2022-09-15T00:31:11.379Z,100757.19
2022-09-15T00:33:39.144Z,100755.06
2022-09-15T00:36:09.493Z,100748.28
2022-09-15T00:38:38.249Z,100755.69
2022-09-15T00:41:08.428Z,100754.84
2022-09-15T00:43:45.154Z,100756.19
2022-09-15T00:46:13.762Z,100757.78
2022-09-15T00:48:47.400Z,100754.56
2022-09-15T00:51:18.133Z,100758.41
2022-09-15T00:53:47.215Z,100760.63
2022-09-15T00:56:16.108Z,100758.19
2022-09-15T00:58:59.415Z,100751.94
2022-09-15T01:01:30.505Z,100757.38
2022-09-15T01:03:58.413Z,100764.75
2022-09-15T01:06:31.570Z,100762.84
2022-09-15T01:09:11.806Z,100754.13
2022-09-15T01:11:40.949Z,100759.06
2022-09-15T01:14:07.955Z,100757.47
2022-09-15T01:16:52.992Z,100753.91
2022-09-15T01:19:52.572Z,100754.28
2022-09-15T01:22:53.228Z,100763.56
2022-09-15T01:25:55.142Z,100764.75
2022-09-15T01:28:55.673Z,100766.66
2022-09-15T01:32:06.765Z,100769.09
2022-09-15T01:34:44.509Z,100770.22
2022-09-15T01:37:17.776Z,100770.22
2022-09-15T01:39:49.493Z,100771.31
2022-09-15T01:42:19.540Z,100769.69
2022-09-15T01:45:00.871Z,100768.06
2022-09-15T01:47:30.336Z,100772.19
2022-09-15T01:50:07.511Z,100768.94
2022-09-15T01:52:35.829Z,100773.88
2022-09-15T01:55:07.833Z,100771.16
2022-09-15T01:57:34.481Z,100775.50
2022-09-15T02:00:01.049Z,100771.97
2022-09-15T02:02:33.042Z,100773.09
2022-09-15T02:05:08.029Z,100770.34
2022-09-15T02:07:55.388Z,100766.06
2022-09-15T02:10:57.924Z,100768.28
2022-09-15T02:13:42.835Z,100760.97
2022-09-15T02:16:20.115Z,100763.50
2022-09-15T02:19:10.950Z,100776.91
2022-09-15T02:21:53.969Z,100760.81
2022-09-15T02:24:32.224Z,100773.34
2022-09-15T02:27:01.789Z,100766.00
2022-09-15T02:29:33.712Z,100768.41
2022-09-15T02:32:06.958Z,100761.88
2022-09-15T02:34:39.530Z,100768.94
2022-09-15T02:37:11.672Z,100776.00
2022-09-15T02:39:45.680Z,100772.50
2022-09-15T02:42:13.360Z,100771.59
2022-09-15T02:44:41.318Z,100775.34
2022-09-15T02:47:08.829Z,100785.69
2022-09-15T02:49:36.262Z,100773.66
2022-09-15T02:52:02.937Z,100774.47
2022-09-15T02:54:29.510Z,100768.22
2022-09-15T02:56:57.946Z,100770.94
2022-09-15T02:59:24.601Z,100779.06
2022-09-15T03:01:55.691Z,100775.22
2022-09-15T03:04:25.206Z,100774.41
2022-09-15T03:06:52.665Z,100774.91
2022-09-15T03:09:22.185Z,100772.69
2022-09-15T03:11:52.697Z,100770.50
2022-09-15T03:14:21.173Z,100769.38
2022-09-15T03:16:48.760Z,100767.75
2022-09-15T03:19:17.225Z,100776.25
2022-09-15T03:21:44.727Z,100777.06
2022-09-15T03:24:11.217Z,100775.66
2022-09-15T03:26:37.578Z,100778.91
2022-09-15T03:29:05.002Z,100779.69
2022-09-15T03:31:32.477Z,100778.31
2022-09-15T03:33:59.919Z,100789.50
2022-09-15T03:36:27.367Z,100789.50
2022-09-15T03:38:57.826Z,100790.34
2022-09-15T03:41:27.970Z,100791.97
2022-09-15T03:43:54.613Z,100790.84
2022-09-15T03:46:24.262Z,100794.88
2022-09-15T03:48:52.889Z,100790.25
2022-09-15T03:51:20.480Z,100792.47
2022-09-15T03:53:47.940Z,100796.31
2022-09-15T03:56:27.296Z,100797.94
2022-09-15T03:58:59.613Z,100790.03
2022-09-15T04:01:26.285Z,100795.78
2022-09-15T04:03:52.802Z,100802.34
2022-09-15T04:06:24.397Z,100809.44
2022-09-15T04:08:53.125Z,100807.22
2022-09-15T04:11:22.672Z,100801.97
2022-09-15T04:13:49.444Z,100797.34
2022-09-15T04:16:19.914Z,100792.69
2022-09-15T04:18:51.041Z,100786.44
2022-09-15T04:21:20.913Z,100791.88
2022-09-15T04:23:54.712Z,100789.16
2022-09-15T04:26:26.069Z,100794.31
2022-09-15T04:28:53.588Z,100785.00
2022-09-15T04:31:21.070Z,100795.41
2022-09-15T04:33:52.381Z,100796.31
2022-09-15T04:36:23.411Z,100802.28
2022-09-15T04:38:52.916Z,100798.13
2022-09-15T04:41:20.999Z,100800.59
2022-09-15T04:43:48.552Z,100798.38
2022-09-15T04:46:16.998Z,100795.34
2022-09-15T04:48:44.213Z,100792.09
2022-09-15T04:51:15.897Z,100797.78
2022-09-15T04:53:45.265Z,100790.72
2022-09-15T04:56:15.613Z,100796.16
2022-09-15T04:58:46.047Z,100787.66
2022-09-15T05:01:19.003Z,100785.75
2022-09-15T05:03:46.676Z,100793.63
2022-09-15T05:06:17.465Z,100790.13
2022-09-15T05:08:53.263Z,100795.56
2022-09-15T05:11:21.738Z,100799.41
2022-09-15T05:13:49.522Z,100792.31
2022-09-15T05:16:22.697Z,100795.34
2022-09-15T05:18:50.881Z,100792.31
2022-09-15T05:21:20.096Z,100808.09
2022-09-15T05:23:49.526Z,100802.13
2022-09-15T05:26:18.841Z,100796.69
2022-09-15T05:28:46.677Z,100793.94
2022-09-15T05:31:19.007Z,100796.69
2022-09-15T05:33:46.848Z,100792.84
2022-09-15T05:36:15.128Z,100797.19
2022-09-15T05:38:43.479Z,100808.91
2022-09-15T05:41:18.465Z,100799.41
2022-09-15T05:43:48.721Z,100808.19
2022-09-15T05:46:18.020Z,100803.81
2022-09-15T05:48:46.385Z,100808.19
2022-09-15T05:51:13.564Z,100807.06
2022-09-15T05:53:40.121Z,100808.19
2022-09-15T05:56:12.344Z,100803.25
2022-09-15T05:58:41.284Z,100811.09
2022-09-15T06:01:35.629Z,100812.44
2022-09-15T06:04:02.310Z,100809.13
2022-09-15T06:06:31.484Z,100805.31
2022-09-15T06:08:59.600Z,100812.34
2022-09-15T06:11:29.815Z,100808.22
2022-09-15T06:14:03.054Z,100810.38
2022-09-15T06:16:36.027Z,100818.75
2022-09-15T06:19:05.049Z,100826.34
2022-09-15T06:21:33.156Z,100821.41
2022-09-15T06:24:03.552Z,100827.38
2022-09-15T06:26:30.309Z,100828.22
2022-09-15T06:28:59.296Z,100834.47
2022-09-15T06:31:27.438Z,100834.19
2022-09-15T06:33:57.638Z,100830.03
2022-09-15T06:36:27.209Z,100827.81
2022-09-15T06:38:55.456Z,100831.06
2022-09-15T06:41:23.000Z,100845.22
2022-09-15T06:43:53.688Z,100835.94
2022-09-15T06:46:22.948Z,100838.38
2022-09-15T06:48:51.977Z,100843.84
2022-09-15T06:51:26.003Z,100851.72
2022-09-15T06:53:53.525Z,100851.72
2022-09-15T06:56:22.767Z,100853.84
2022-09-15T06:58:51.424Z,100857.63
2022-09-15T07:01:29.770Z,100865.16
2022-09-15T07:04:00.742Z,100858.50
2022-09-15T07:06:33.773Z,100854.78
2022-09-15T07:09:02.479Z,100866.97
2022-09-15T07:11:30.927Z,100874.75
2022-09-15T07:13:59.063Z,100871.13
2022-09-15T07:16:26.674Z,100886.41
2022-09-15T07:18:56.914Z,100882.56
2022-09-15T07:21:23.957Z,100884.19
2022-09-15T07:23:51.760Z,100888.84
2022-09-15T07:26:21.483Z,100890.78
2022-09-15T07:28:53.959Z,100892.41
2022-09-15T07:31:23.609Z,100895.63
2022-09-15T07:33:50.308Z,100902.72
2022-09-15T07:36:19.289Z,100901.53
2022-09-15T07:38:48.959Z,100903.94
2022-09-15T07:41:24.501Z,100905.28
2022-09-15T07:43:54.327Z,100897.59
2022-09-15T07:46:29.352Z,100905.19
2022-09-15T07:48:56.517Z,100904.38
2022-09-15T07:51:25.484Z,100904.56
2022-09-15T07:53:53.084Z,100903.97
2022-09-15T07:56:23.291Z,100897.38
2022-09-15T07:58:52.226Z,100904.47
2022-09-15T08:01:22.626Z,100909.66
2022-09-15T08:03:51.995Z,100919.97
2022-09-15T08:06:20.979Z,100922.41
2022-09-15T08:08:50.217Z,100926.97
2022-09-15T08:11:20.203Z,100922.81
2022-09-15T08:13:49.590Z,100923.84
2022-09-15T08:16:18.668Z,100928.19
2022-09-15T08:18:45.917Z,100924.84
2022-09-15T08:21:16.036Z,100928.09
2022-09-15T08:23:44.907Z,100924.75
2022-09-15T08:26:14.290Z,100936.72
2022-09-15T08:28:42.171Z,100940.47
2022-09-15T08:31:12.848Z,100946.97
2022-09-15T08:33:43.355Z,100953.47
2022-09-15T08:36:11.460Z,100950.63
2022-09-15T08:38:44.189Z,100955.00
2022-09-15T08:41:25.453Z,100960.38
2022-09-15T08:44:27.054Z,100963.00
2022-09-15T08:47:20.421Z,100967.03
2022-09-15T08:50:05.579Z,100965.66
2022-09-15T08:52:38.156Z,100973.34
2022-09-15T08:55:19.019Z,100961.56
2022-09-15T08:57:47.413Z,100974.97
2022-09-15T09:00:16.549Z,100973.34
2022-09-15T09:03:06.598Z,100978.00
2022-09-15T09:06:02.519Z,100971.13
2022-09-15T09:08:35.230Z,100979.00
2022-09-15T09:11:43.278Z,100977.88
2022-09-15T09:14:27.607Z,100974.88
2022-09-15T09:17:18.297Z,100968.28
2022-09-15T09:19:50.380Z,100982.47
2022-09-15T09:22:23.001Z,100973.16
2022-09-15T09:24:53.284Z,100972.81
2022-09-15T09:27:27.102Z,100973.16
2022-09-15T09:30:03.918Z,100976.16
2022-09-15T09:32:45.474Z,100972.94
2022-09-15T09:35:36.265Z,100976.78
2022-09-15T09:38:58.549Z,100989.34
2022-09-15T09:41:51.875Z,100981.13
2022-09-15T09:44:20.882Z,100979.84
2022-09-15T09:47:00.633Z,100974.97
2022-09-15T09:50:02.806Z,100981.22
2022-09-15T09:52:42.047Z,100982.06
2022-09-15T09:55:29.496Z,100993.00
2022-09-15T09:58:15.575Z,100995.13
2022-09-15T10:00:47.348Z,100991.78
2022-09-15T10:03:32.932Z,100992.19
2022-09-15T10:06:06.571Z,100994.84
2022-09-15T10:08:52.010Z,100992.00
2022-09-15T10:11:18.528Z,100990.78
2022-09-15T10:13:59.376Z,100985.47
2022-09-15T10:16:27.626Z,100977.97
2022-09-15T10:18:57.914Z,100977.84
2022-09-15T10:21:25.664Z,100969.03
2022-09-15T10:23:55.143Z,100992.56
2022-09-15T10:26:34.449Z,100986.06
2022-09-15T10:29:12.432Z,100981.19
2022-09-15T10:32:29.804Z,100962.66
2022-09-15T10:35:13.982Z,100960.75
2022-09-15T10:38:36.665Z,100968.00
2022-09-15T10:41:27.261Z,100966.28
2022-09-15T10:44:49.132Z,100961.19
2022-09-15T10:47:34.520Z,100945.66
2022-09-15T10:50:33.311Z,100944.94
2022-09-15T10:53:57.209Z,100954.34
2022-09-15T10:56:33.921Z,100945.19
2022-09-15T10:59:48.200Z,100945.59
2022-09-15T11:02:31.363Z,100939.03
2022-09-15T11:05:22.609Z,100938.13
2022-09-15T11:08:00.311Z,100951.22
2022-09-15T11:10:55.869Z,100950.59
2022-09-15T11:14:06.352Z,100943.47
2022-09-15T11:16:57.809Z,100949.97
2022-09-15T11:19:39.431Z,100956.72
2022-09-15T11:22:34.378Z,100945.47
2022-09-15T11:25:18.556Z,100942.41
2022-09-15T11:27:53.787Z,100941.66
2022-09-15T11:30:47.952Z,100943.97
2022-09-15T11:33:33.022Z,100930.09
2022-09-15T11:36:09.697Z,100933.69
2022-09-15T11:38:40.477Z,100932.63
2022-09-15T11:41:33.897Z,100929.53
2022-09-15T11:44:22.847Z,100941.97
2022-09-15T11:47:29.332Z,100936.63
2022-09-15T11:50:14.547Z,100952.38
2022-09-15T11:53:08.915Z,100950.41
2022-09-15T11:56:04.204Z,100957.97
2022-09-15T11:59:00.222Z,100947.47
2022-09-15T12:02:14.420Z,100955.81
2022-09-15T12:04:49.109Z,100945.50
2022-09-15T12:07:28.796Z,100933.16
2022-09-15T12:09:56.638Z,100927.06
2022-09-15T12:12:30.632Z,100930.38
2022-09-15T12:15:18.907Z,100932.34
2022-09-15T12:18:34.326Z,100929.13
2022-09-15T12:21:26.240Z,100930.47
2022-09-15T12:24:20.760Z,100922.13
2022-09-15T12:26:47.481Z,100928.28
2022-09-15T12:30:06.298Z,100932.34
2022-09-15T12:32:35.065Z,100935.25
2022-09-15T12:35:23.366Z,100934.91
2022-09-15T12:37:58.882Z,100949.41
2022-09-15T12:40:44.373Z,100941.97
2022-09-15T12:43:12.555Z,100948.19
2022-09-15T12:45:52.523Z,100944.47
2022-09-15T12:48:22.152Z,100950.09
2022-09-15T12:51:10.474Z,100951.06
2022-09-15T12:54:05.140Z,100958.09
2022-09-15T12:56:53.908Z,100968.22
2022-09-15T12:59:28.073Z,100980.44
2022-09-15T13:01:57.547Z,100989.94
2022-09-15T13:04:42.526Z,100987.34
2022-09-15T13:07:16.007Z,100993.19
2022-09-15T13:09:59.744Z,100980.66
2022-09-15T13:12:55.135Z,100984.97
2022-09-15T13:15:46.671Z,100991.56
2022-09-15T13:18:30.928Z,100988.94
2022-09-15T13:21:22.987Z,100992.19
2022-09-15T13:23:53.132Z,100984.13
2022-09-15T13:26:27.827Z,100988.88
2022-09-15T13:28:57.962Z,100981.84
2022-09-15T13:32:02.905Z,100988.22
2022-09-15T13:38:15.022Z,100980.34
2022-09-15T13:41:23.356Z,100975.66
2022-09-15T13:44:38.029Z,100971.00
2022-09-15T13:51:31.462Z,100969.13
2022-09-15T13:54:06.125Z,100967.03
2022-09-15T13:56:40.199Z,100970.69
2022-09-15T13:59:16.913Z,100963.09
2022-09-15T14:01:50.465Z,100962.28
2022-09-15T14:04:30.923Z,100962.91
2022-09-15T14:07:20.030Z,100957.22
2022-09-15T14:09:49.327Z,100966.56
2022-09-15T14:12:18.660Z,100980.59
2022-09-15T14:14:54.804Z,100979.59
2022-09-15T14:17:44.981Z,100989.06
2022-09-15T14:20:34.570Z,100994.78
2022-09-15T14:23:16.386Z,100986.28
2022-09-15T14:25:45.948Z,100994.31
2022-09-15T14:28:32.860Z,100991.38
2022-09-15T14:31:04.328Z,100998.81
2022-09-15T14:33:40.571Z,100992.19
2022-09-15T14:36:21.328Z,101000.59
2022-09-15T14:39:18.053Z,100994.50
2022-09-15T14:47:43.248Z,100995.91
2022-09-15T14:50:21.540Z,100994.69
2022-09-15T14:53:11.548Z,100993.94
2022-09-15T14:56:08.177Z,100995.44
2022-09-15T14:59:16.410Z,100994.00
2022-09-15T15:01:56.895Z,100986.88
2022-09-15T15:04:40.838Z,100996.44
2022-09-15T15:07:29.097Z,100982.59
2022-09-15T15:10:07.567Z,100985.00
2022-09-15T15:12:57.237Z,100985.84
2022-09-15T15:15:48.093Z,100983.72
2022-09-15T15:18:46.784Z,100989.84
2022-09-15T15:21:45.768Z,100985.59
2022-09-15T15:24:39.653Z,100986.50
2022-09-15T15:27:33.952Z,100981.66
2022-09-15T15:30:37.924Z,100992.44
2022-09-15T15:33:25.455Z,100984.50
2022-09-15T15:36:11.889Z,100983.72
2022-09-15T15:39:02.133Z,100995.31
2022-09-15T15:41:40.858Z,100992.06
2022-09-15T15:44:45.349Z,100996.22
2022-09-15T15:47:32.596Z,100998.16
2022-09-15T15:50:20.152Z,100998.78
2022-09-15T15:53:00.701Z,101001.00
2022-09-15T15:55:41.910Z,101014.78
2022-09-15T15:58:22.625Z,101022.34
2022-09-15T16:01:01.710Z,101007.94
2022-09-15T16:03:28.265Z,101015.63
2022-09-15T16:05:59.420Z,101011.09
2022-09-15T16:08:34.146Z,101024.28
2022-09-15T16:11:04.009Z,101031.50
2022-09-15T16:13:32.499Z,101036.75
2022-09-15T16:16:15.639Z,101033.00
2022-09-15T16:18:42.261Z,101031.72
2022-09-15T16:21:31.684Z,101021.97
2022-09-15T16:23:59.081Z,101018.53
2022-09-15T16:26:35.661Z,101023.81
2022-09-15T16:29:02.553Z,101021.38
2022-09-15T16:32:05.997Z,101020.38
2022-09-15T16:34:37.682Z,101024.84
2022-09-15T16:37:06.605Z,101036.41
2022-09-15T16:39:38.132Z,101034.44
2022-09-15T16:42:06.714Z,101033.16
2022-09-15T16:44:44.013Z,101033.25
2022-09-15T16:47:19.222Z,101035.38
2022-09-15T16:49:52.747Z,101033.53
2022-09-15T16:52:27.064Z,101029.50
2022-09-15T16:54:58.511Z,101027.03
2022-09-15T16:57:25.958Z,101041.84
2022-09-15T17:00:04.569Z,101031.81
2022-09-15T17:02:38.012Z,101022.59
2022-09-15T17:05:25.465Z,101025.84
2022-09-15T17:08:09.853Z,101022.88
2022-09-15T17:10:49.083Z,101018.00
2022-09-15T17:13:21.677Z,101016.69
2022-09-15T17:15:50.771Z,101015.88
2022-09-15T17:18:30.669Z,101021.16
2022-09-15T17:20:59.046Z,101028.84
2022-09-15T17:23:53.503Z,101027.22
2022-09-15T17:26:25.495Z,101025.59
2022-09-15T17:29:52.877Z,101034.91
2022-09-15T17:32:23.056Z,101025.91
2022-09-15T17:35:26.812Z,101037.16
2022-09-15T17:37:54.348Z,101032.25
2022-09-15T17:40:35.084Z,101032.56
2022-09-15T17:43:02.455Z,101032.84
2022-09-15T17:45:33.970Z,101031.22
2022-09-15T17:51:57.093Z,101038.72
2022-09-15T17:54:25.913Z,101037.38
2022-09-15T17:57:00.431Z,101042.94
2022-09-15T17:59:29.006Z,101041.41
2022-09-15T18:02:02.643Z,101045.31
2022-09-15T18:04:56.500Z,101049.25
2022-09-15T18:07:30.050Z,101045.47
2022-09-15T18:10:06.000Z,101043.94
2022-09-15T18:12:32.460Z,101051.66
2022-09-15T18:15:05.437Z,101044.84
2022-09-15T18:17:34.981Z,101050.31
2022-09-15T18:20:39.624Z,101059.84
2022-09-15T18:23:24.849Z,101062.06
2022-09-15T18:26:00.513Z,101083.94
2022-09-15T18:28:38.075Z,101088.38
2022-09-15T18:31:04.685Z,101096.72
2022-09-15T18:33:37.364Z,101093.00
2022-09-15T18:36:12.311Z,101095.34
2022-09-15T18:38:46.903Z,101098.78
2022-09-15T18:41:14.453Z,101098.13
2022-09-15T18:43:51.253Z,101097.06
2022-09-15T18:46:30.144Z,101108.31
2022-09-15T18:49:02.880Z,101119.78
2022-09-15T18:51:52.248Z,101122.59
2022-09-15T18:54:24.108Z,101105.75
2022-09-15T18:57:47.662Z,101103.38
2022-09-15T19:00:46.159Z,101096.59
2022-09-15T19:03:44.081Z,101094.72
2022-09-15T19:06:11.022Z,101093.44
2022-09-15T19:08:37.813Z,101098.91
2022-09-15T19:11:06.685Z,101106.06
2022-09-15T19:13:35.724Z,101104.44
2022-09-15T19:16:58.319Z,101115.34
2022-09-15T19:20:02.318Z,101115.88
2022-09-15T19:22:30.806Z,101112.91
2022-09-15T19:25:00.147Z,101106.66
2022-09-15T19:27:26.693Z,101108.84
2022-09-15T19:29:54.216Z,101102.28
2022-09-15T19:32:25.902Z,101102.88
2022-09-15T19:35:08.394Z,101101.28
2022-09-15T19:37:44.075Z,101104.09
2022-09-15T19:40:18.682Z,101104.38
2022-09-15T19:42:55.461Z,101109.59
2022-09-15T19:45:22.904Z,101110.66
2022-09-15T19:47:49.357Z,101118.53
2022-09-15T19:50:16.866Z,101122.13
2022-09-15T19:52:59.800Z,101124.91
2022-09-15T19:55:28.640Z,101120.00
2022-09-15T19:57:56.036Z,101120.53
2022-09-15T20:00:25.668Z,101123.25
2022-09-15T20:03:03.516Z,101132.25
2022-09-15T20:05:33.052Z,101141.78
2022-09-15T20:08:02.026Z,101132.25
2022-09-15T20:10:39.624Z,101136.94
2022-09-15T20:13:07.094Z,101128.75
2022-09-15T20:15:34.693Z,101129.31
2022-09-15T20:18:04.917Z,101126.91
2022-09-15T20:20:39.012Z,101116.22
2022-09-15T20:23:15.560Z,101119.47
2022-09-15T20:26:00.516Z,101119.47
2022-09-15T20:29:17.684Z,101124.97
2022-09-15T20:32:10.753Z,101126.38
2022-09-15T20:34:43.540Z,101123.91
2022-09-15T20:37:49.549Z,101129.34
2022-09-15T20:40:18.488Z,101127.19
2022-09-15T20:43:06.854Z,101133.72
2022-09-15T20:45:37.131Z,101124.47
2022-09-15T20:48:10.866Z,101127.50
2022-09-15T20:50:40.368Z,101127.19
2022-09-15T20:53:11.904Z,101122.03
2022-09-15T20:55:57.208Z,101120.72
2022-09-15T20:58:27.221Z,101122.13
2022-09-15T21:01:18.382Z,101134.38
2022-09-15T21:03:47.780Z,101134.91
2022-09-15T21:06:23.421Z,101124.88
2022-09-15T21:08:56.788Z,101127.59
2022-09-15T21:11:26.691Z,101126.22
2022-09-15T21:13:54.520Z,101129.25
2022-09-15T21:16:37.383Z,101131.69
2022-09-15T21:19:19.057Z,101126.00
2022-09-15T21:21:58.915Z,101135.81
2022-09-15T21:24:57.534Z,101131.50
2022-09-15T21:27:30.194Z,101128.53
2022-09-15T21:30:11.397Z,101138.91
2022-09-15T21:32:48.765Z,101143.25
2022-09-15T21:35:25.566Z,101147.06
2022-09-15T21:38:16.504Z,101145.69
2022-09-15T21:40:48.516Z,101150.31
2022-09-15T21:43:16.293Z,101145.44
2022-09-15T21:45:47.910Z,101146.25
2022-09-15T21:48:14.390Z,101142.72
2022-09-15T21:50:58.150Z,101145.16
2022-09-15T21:53:46.110Z,101154.72
2022-09-15T21:56:17.042Z,101155.84
2022-09-15T21:58:50.935Z,101149.59
2022-09-15T22:01:26.520Z,101154.22
2022-09-15T22:03:55.247Z,101152.88
2022-09-15T22:06:40.810Z,101154.78
2022-09-15T22:09:16.055Z,101162.41
2022-09-15T22:11:47.957Z,101161.59
2022-09-15T22:14:28.686Z,101161.88
2022-09-15T22:16:56.454Z,101153.97
2022-09-15T22:19:24.250Z,101150.41
2022-09-15T22:21:55.870Z,101150.41
2022-09-15T22:24:47.940Z,101145.53
2022-09-15T22:27:32.682Z,101142.50
2022-09-15T22:34:05.415Z,101121.03
2022-09-15T22:36:34.281Z,101122.41
2022-09-15T22:39:57.750Z,101124.03
2022-09-15T22:42:50.325Z,101123.25
2022-09-15T22:45:55.898Z,101128.41
2022-09-15T22:48:43.627Z,101128.69
2022-09-15T22:54:50.716Z,101124.91
2022-09-15T22:57:27.395Z,101120.28
2022-09-15T22:59:59.110Z,101122.75
2022-09-15T23:02:54.721Z,101125.47
2022-09-15T23:05:41.602Z,101115.97
2022-09-15T23:08:38.049Z,101129.59
2022-09-15T23:11:19.218Z,101130.16
2022-09-15T23:13:53.591Z,101122.25
2022-09-15T23:16:22.330Z,101115.19
2022-09-15T23:19:00.430Z,101129.63
2022-09-15T23:21:33.276Z,101130.69
2022-09-15T23:24:02.986Z,101139.66
2022-09-15T23:26:45.756Z,101141.81
2022-09-15T23:29:18.717Z,101134.72
2022-09-15T23:32:14.258Z,101131.75
2022-09-15T23:34:48.778Z,101135.81
2022-09-15T23:37:17.244Z,101135.25
2022-09-15T23:39:48.894Z,101120.00
2022-09-15T23:42:19.126Z,101125.44
2022-09-15T23:44:46.646Z,101122.19
2022-09-15T23:47:17.102Z,101122.19
2022-09-15T23:49:44.663Z,101126.00
2022-09-15T23:52:18.225Z,101127.34
2022-09-15T23:54:54.845Z,101130.91
2022-09-15T23:57:29.130Z,101133.63
2022-09-15T23:59:56.691Z,101132.00
